Time;durP1;ratioP1;P1;durP2;ratioP2;P2;SDS_P1;SDS_P2;PMS_P1;PMS_P2;Temp;Humidity;BMP_temperature;BMP_pressure;BME280_temperature;BME280_humidity;BME280_pressure;Samples;Min_cycle;Max_cycle;Signal;HPM_P1;HPM_P2
2022/06/10 00:05:27;;;;;;;18.13;8.33;;;12.40;1.00;;;;;;5074662;28;20181;-90
2022/06/10 00:11:15;;;;;;;15.97;8.80;;;12.30;1.00;;;;;;5071603;28;20387;-90
2022/06/10 00:17:03;;;;;;;11.43;8.37;;;12.20;1.00;;;;;;5054238;28;20163;-90
2022/06/10 00:22:51;;;;;;;12.00;8.37;;;12.10;1.00;;;;;;5034116;28;20453;-90
2022/06/10 00:28:40;;;;;;;14.87;9.17;;;12.00;1.00;;;;;;5034182;28;20374;-90
2022/06/10 00:34:27;;;;;;;14.07;9.00;;;11.90;1.00;;;;;;5034436;28;20390;-84
2022/06/10 00:44:15;;;;;;;17.37;9.77;;;11.80;1.00;;;;;;5048026;28;20410;-83
2022/06/10 00:50:28;;;;;;;12.80;9.17;;;11.80;1.00;;;;;;5052346;28;20424;-91
2022/06/10 00:56:20;;;;;;;10.07;8.33;;;11.70;1.00;;;;;;5057594;28;20799;-90
2022/06/10 01:05:30;;;;;;;12.50;8.30;;;11.60;1.00;;;;;;5057696;28;20429;-90
2022/06/10 01:11:46;;;;;;;12.40;8.13;;;11.60;1.00;;;;;;5056980;28;21005;-90
2022/06/10 01:18:11;;;;;;;15.17;8.33;;;11.50;1.00;;;;;;5057233;28;20370;-90
2022/06/10 01:21:05;;;;;;;10.10;7.73;;;11.40;1.00;;;;;;5059010;28;20432;-90
2022/06/10 01:33:54;;;;;;;12.63;6.80;;;11.30;1.00;;;;;;5017261;28;20969;-90
2022/06/10 01:40:05;;;;;;;12.60;8.07;;;11.20;1.00;;;;;;5016880;28;20372;-90
2022/06/10 01:49:29;;;;;;;12.93;7.40;;;11.10;1.00;;;;;;5036351;28;20502;-87
2022/06/10 01:58:46;;;;;;;11.50;8.50;;;11.00;1.00;;;;;;5016903;28;20876;-90
2022/06/10 02:05:27;;;;;;;18.13;8.87;;;11.00;1.00;;;;;;5036632;28;20350;-84
2022/06/10 02:11:17;;;;;;;10.50;7.80;;;11.00;1.00;;;;;;5025746;28;20373;-83
2022/06/10 02:14:27;;;;;;;10.97;7.17;;;10.90;1.00;;;;;;5017584;28;20977;-83
2022/06/10 02:27:03;;;;;;;12.50;7.07;;;10.80;1.00;;;;;;5036377;28;20406;-90
2022/06/10 02:32:51;;;;;;;14.33;6.70;;;10.70;1.00;;;;;;5015838;28;20971;-90
2022/06/10 02:42:23;;;;;;;13.03;7.30;;;10.60;1.00;;;;;;5035464;28;20464;-90
2022/06/10 02:51:34;;;;;;;14.73;8.60;;;10.50;1.00;;;;;;5034846;28;20381;-84
2022/06/10 03:01:11;;;;;;;12.20;7.97;;;10.50;1.00;;;;;;5014823;28;20395;-83
2022/06/10 03:07:15;;;;;;;10.80;7.87;;;10.40;1.00;;;;;;5035225;28;20446;-90
2022/06/10 03:13:05;;;;;;;8.60;7.30;;;10.30;1.00;;;;;;5035279;28;20976;-90
2022/06/10 03:26:09;;;;;;;12.83;8.40;;;10.30;1.00;;;;;;5038927;28;20705;-83
2022/06/10 03:29:27;;;;;;;11.87;8.00;;;10.30;1.00;;;;;;4991908;28;20460;-83
2022/06/10 03:35:38;;;;;;;12.50;7.70;;;10.30;1.00;;;;;;4992663;28;20448;-84
2022/06/10 03:44:51;;;;;;;16.20;7.70;;;10.20;1.00;;;;;;4993249;28;20931;-90
2022/06/10 03:54:00;;;;;;;11.63;7.03;;;10.30;1.00;;;;;;4992618;28;20485;-83
2022/06/10 04:06:29;;;;;;;11.90;7.00;;;10.40;1.00;;;;;;5012494;28;20893;-86
2022/06/10 04:12:17;;;;;;;16.70;8.13;;;10.40;1.00;;;;;;5050267;28;20303;-79
2022/06/10 04:14:51;;;;;;;13.70;7.73;;;10.50;1.00;;;;;;5039763;28;20500;-79
2022/06/10 04:17:27;;;;;;;11.10;7.57;;;10.50;1.00;;;;;;5026123;28;20184;-79
2022/06/10 04:27:03;;;;;;;9.97;7.23;;;10.60;1.00;;;;;;5038600;28;20442;-77
2022/06/10 04:29:29;;;;;;;10.77;6.73;;;10.60;1.00;;;;;;5035139;28;20505;-79
2022/06/10 04:35:17;;;;;;;13.37;7.47;;;10.70;1.00;;;;;;5053254;28;20372;-78
2022/06/10 04:41:06;;;;;;;8.33;6.83;;;10.80;1.00;;;;;;5037161;28;20415;-85
2022/06/10 04:46:53;;;;;;;7.40;6.70;;;10.80;1.00;;;;;;5037991;28;20469;-95
2022/06/10 04:49:23;;;;;;;11.20;7.23;;;11.00;1.00;;;;;;5020461;28;20465;-85
2022/06/10 04:51:49;;;;;;;8.10;6.90;;;11.00;1.00;;;;;;5036464;28;20200;-83
2022/06/10 04:57:37;;;;;;;8.53;7.13;;;11.20;1.00;;;;;;5036692;28;20533;-83
2022/06/10 05:00:34;;;;;;;8.90;7.10;;;11.30;1.00;;;;;;5027042;28;20454;-87
2022/06/10 05:03:02;;;;;;;26.53;7.60;;;11.40;1.00;;;;;;5039289;28;20517;-83
2022/06/10 05:05:29;;;;;;;11.43;7.27;;;11.50;1.00;;;;;;5063540;28;20787;-83
2022/06/10 05:07:56;;;;;;;10.73;7.57;;;11.60;1.00;;;;;;5044338;28;20401;-81
2022/06/10 05:10:22;;;;;;;9.97;7.77;;;11.70;1.00;;;;;;5049745;28;20400;-80
2022/06/10 05:16:12;;;;;;;12.17;7.93;;;12.00;1.00;;;;;;5029678;28;20463;-80
2022/06/10 05:25:21;;;;;;;30.27;9.83;;;12.30;1.00;;;;;;5040558;28;20376;-80
2022/06/10 05:31:09;;;;;;;10.77;8.80;;;12.60;1.00;;;;;;5035917;28;20187;-80
2022/06/10 05:37:03;;;;;;;12.43;9.03;;;12.90;1.00;;;;;;5035988;28;20179;-80
2022/06/10 05:42:51;;;;;;;22.60;12.60;;;13.20;1.00;;;;;;5043216;28;20376;-83
2022/06/10 05:48:38;;;;;;;12.60;10.90;;;13.60;1.00;;;;;;5031394;28;20756;-80
2022/06/10 05:51:09;;;;;;;19.07;12.83;;;13.80;1.00;;;;;;5046194;28;20406;-78
2022/06/10 05:53:39;;;;;;;20.83;11.13;;;13.90;1.00;;;;;;5055628;28;20283;-80
2022/06/10 05:56:21;;;;;;;15.73;11.70;;;14.00;1.00;;;;;;5042855;28;20419;-80
2022/06/10 05:59:39;;;;;;;14.10;10.40;;;14.20;1.00;;;;;;5046209;28;20901;-80
2022/06/10 06:02:11;;;;;;;17.13;10.30;;;14.30;1.00;;;;;;5044458;28;20470;-79
2022/06/10 06:04:40;;;;;;;15.80;10.27;;;14.50;1.00;;;;;;5034900;28;20484;-78
2022/06/10 06:07:24;;;;;;;16.57;10.90;;;14.60;1.00;;;;;;5036400;28;20423;-78
2022/06/10 06:10:04;;;;;;;18.63;10.20;;;14.80;1.00;;;;;;5015389;28;20390;-77
2022/06/10 06:12:34;;;;;;;14.03;10.00;;;14.90;1.00;;;;;;5015414;28;20931;-78
2022/06/10 06:18:52;;;;;;;18.10;9.37;;;15.10;1.00;;;;;;5020137;28;20518;-78
2022/06/10 06:21:21;;;;;;;18.70;9.80;;;15.30;1.00;;;;;;5034650;28;20964;-77
2022/06/10 06:23:47;;;;;;;10.57;8.50;;;15.40;1.00;;;;;;5050640;28;20783;-78
2022/06/10 06:26:21;;;;;;;12.77;8.20;;;15.60;1.00;;;;;;5053128;28;20426;-78
2022/06/10 06:28:47;;;;;;;17.53;8.37;;;15.70;1.00;;;;;;5054748;28;20214;-77
2022/06/10 06:35:03;;;;;;;11.67;7.50;;;16.10;99.90;;;;;;5039249;28;20286;-80
2022/06/10 06:40:50;;;;;;;10.33;6.50;;;16.30;99.90;;;;;;5040251;28;20442;-79
2022/06/10 06:43:21;;;;;;;17.23;6.40;;;16.40;99.90;;;;;;5024550;28;20472;-77
2022/06/10 06:45:47;;;;;;;6.33;5.27;;;16.60;99.90;;;;;;5036929;28;20195;-83
2022/06/10 06:51:36;;;;;;;6.63;5.03;;;16.80;99.90;;;;;;5030780;28;20200;-81
2022/06/10 06:57:25;;;;;;;10.60;5.57;;;17.00;99.90;;;;;;5033926;28;20466;-81
2022/06/10 07:09:57;;;;;;;4.93;4.07;;;17.70;99.90;;;;;;5034148;28;20915;-75
2022/06/10 07:12:51;;;;;;;9.33;4.33;;;17.80;99.90;;;;;;5036995;28;20455;-76
2022/06/10 07:15:34;;;;;;;5.60;4.37;;;17.90;99.90;;;;;;5040278;28;20186;-76
2022/06/10 07:18:00;;;;;;;4.60;3.80;;;18.00;99.90;;;;;;5033681;28;20447;-76
2022/06/10 07:20:51;;;;;;;6.60;3.60;;;18.10;99.90;;;;;;5019092;28;20436;-76
2022/06/10 07:23:21;;;;;;;7.30;3.93;;;18.20;99.90;;;;;;5046209;28;20431;-76
2022/06/10 07:25:51;;;;;;;5.83;3.70;;;18.40;99.90;;;;;;5030392;28;20846;-76
2022/06/10 07:28:27;;;;;;;6.73;3.20;;;18.50;99.90;;;;;;5033876;28;20458;-78
2022/06/10 07:34:16;;;;;;;4.53;3.30;;;18.80;99.90;;;;;;5026803;28;20967;-77
2022/06/10 07:37:15;;;;;;;9.10;3.53;;;18.90;99.90;;;;;;5035225;28;20432;-76
2022/06/10 07:39:40;;;;;;;7.43;3.17;;;19.00;99.90;;;;;;5040364;28;20430;-78
2022/06/10 07:42:45;;;;;;;4.90;3.07;;;19.10;99.90;;;;;;5044452;28;20421;-80
2022/06/10 07:45:21;;;;;;;5.57;2.80;;;19.30;99.90;;;;;;5036745;28;20195;-75
2022/06/10 07:47:57;;;;;;;10.90;3.40;;;19.40;99.90;;;;;;5023344;28;20761;-85
2022/06/10 07:53:46;;;;;;;11.03;2.93;;;19.60;99.90;;;;;;5039952;28;20467;-87
2022/06/10 07:56:17;;;;;;;4.77;3.30;;;19.80;99.90;;;;;;5036488;28;20483;-86
2022/06/10 07:59:03;;;;;;;6.27;2.90;;;19.80;99.90;;;;;;5028572;28;20451;-86
2022/06/10 08:02:03;;;;;;;6.40;2.57;;;19.90;99.90;;;;;;5031191;28;20419;-85
2022/06/10 08:11:26;;;;;;;5.13;2.30;;;20.50;99.90;;;;;;5015841;28;20404;-89
2022/06/10 08:13:52;;;;;;;7.83;2.77;;;20.50;99.90;;;;;;5018236;28;20470;-86
2022/06/10 08:16:18;;;;;;;4.60;2.50;;;20.70;99.90;;;;;;5044384;28;20602;-77
2022/06/10 08:18:44;;;;;;;3.33;2.27;;;20.80;99.90;;;;;;5048635;28;20535;-77
2022/06/10 08:27:39;;;;;;;4.90;2.40;;;20.90;99.90;;;;;;5023742;28;20998;-78
2022/06/10 08:30:14;;;;;;;3.90;2.57;;;21.00;99.90;;;;;;5044863;28;20516;-78
2022/06/10 08:36:21;;;;;;;2.13;1.90;;;21.10;99.90;;;;;;5013285;28;20420;-79
2022/06/10 08:38:47;;;;;;;6.40;2.50;;;21.20;99.90;;;;;;5026155;28;20423;-76
2022/06/10 08:41:26;;;;;;;3.30;2.47;;;21.30;99.90;;;;;;5041086;28;20416;-76
2022/06/10 08:44:09;;;;;;;5.83;2.37;;;21.50;99.90;;;;;;5032875;28;20181;-77
2022/06/10 08:47:06;;;;;;;3.57;1.93;;;21.70;99.90;;;;;;5039642;28;20420;-77
2022/06/10 08:49:35;;;;;;;4.23;1.90;;;21.80;99.90;;;;;;5036817;28;20940;-76
2022/06/10 08:52:45;;;;;;;6.23;2.23;;;21.80;99.90;;;;;;5023157;28;20453;-76
2022/06/10 08:58:47;;;;;;;2.90;2.40;;;21.90;99.90;;;;;;5015917;28;20401;-82
2022/06/10 09:01:23;;;;;;;8.00;2.50;;;22.10;99.90;;;;;;5034443;28;20426;-81
2022/06/10 09:07:30;;;;;;;3.80;2.30;;;22.30;99.90;;;;;;5026383;28;20457;-81
2022/06/10 09:10:51;;;;;;;4.70;2.60;;;22.40;99.90;;;;;;5026144;28;20484;-78
2022/06/10 09:14:09;;;;;;;2.80;1.87;;;22.40;99.90;;;;;;5037067;28;20478;-77
2022/06/10 09:17:09;;;;;;;10.53;2.10;;;22.60;99.90;;;;;;5044054;28;20489;-82
2022/06/10 09:20:13;;;;;;;2.40;1.87;;;22.80;99.90;;;;;;5027108;28;20502;-77
2022/06/10 09:22:48;;;;;;;3.13;1.80;;;22.90;99.90;;;;;;5027752;28;20440;-77
2022/06/10 09:28:37;;;;;;;3.90;1.87;;;23.30;99.90;;;;;;5049133;28;20459;-79
2022/06/10 09:31:28;;;;;;;4.17;2.00;;;23.10;99.90;;;;;;5045910;28;20428;-78
2022/06/10 09:37:30;;;;;;;6.73;1.87;;;23.40;99.90;;;;;;5030767;28;20404;-79
2022/06/10 09:46:17;;;;;;;3.53;1.87;;;23.10;99.90;;;;;;5043289;28;20904;-77
2022/06/10 09:49:19;;;;;;;4.60;1.70;;;22.90;99.90;;;;;;5035817;28;20423;-77
2022/06/10 09:51:51;;;;;;;7.33;2.07;;;22.80;99.90;;;;;;5030435;28;20481;-77
2022/06/10 09:58:07;;;;;;;4.07;1.80;;;23.00;99.90;;;;;;5044316;28;20420;-80
2022/06/10 10:03:54;;;;;;;4.77;2.10;;;23.20;99.90;;;;;;5035356;28;20522;-80
2022/06/10 10:06:27;;;;;;;5.03;2.53;;;23.50;99.90;;;;;;5039968;28;21219;-80
2022/06/10 10:12:24;;;;;;;4.20;1.80;;;24.00;99.90;;;;;;5038414;28;20925;-79
2022/06/10 10:15:31;;;;;;;3.47;1.60;;;24.10;99.90;;;;;;5039725;28;20432;-77
2022/06/10 10:18:17;;;;;;;1.70;1.43;;;24.10;99.90;;;;;;5029463;28;20433;-77
2022/06/10 10:21:27;;;;;;;7.93;2.23;;;24.40;99.90;;;;;;5029755;28;20896;-79
2022/06/10 10:24:39;;;;;;;3.90;1.83;;;24.40;99.90;;;;;;5033578;28;20467;-78
2022/06/10 10:27:31;;;;;;;2.93;1.63;;;24.60;99.90;;;;;;5030461;28;20445;-80
2022/06/10 10:33:18;;;;;;;1.80;1.37;;;25.10;99.90;;;;;;5040746;28;20476;-80
2022/06/10 10:35:49;;;;;;;4.43;1.70;;;25.30;99.90;;;;;;5044904;28;20452;-80
2022/06/10 10:42:15;;;;;;;2.93;1.87;;;24.90;99.90;;;;;;5047618;28;20411;-80
2022/06/10 10:48:05;;;;;;;3.97;1.63;;;25.00;99.90;;;;;;5046146;28;20952;-80
2022/06/10 10:51:19;;;;;;;4.80;1.90;;;25.20;99.90;;;;;;5054678;28;20473;-80
2022/06/10 10:54:07;;;;;;;11.27;1.87;;;25.60;99.90;;;;;;5028522;28;20468;-87
2022/06/10 10:56:37;;;;;;;3.83;1.70;;;25.60;99.90;;;;;;5040932;28;20462;-85
2022/06/10 10:59:05;;;;;;;3.50;1.90;;;25.30;99.90;;;;;;5041280;28;20457;-78
2022/06/10 11:05:15;;;;;;;10.40;2.23;;;25.40;99.90;;;;;;5030580;28;20933;-77
2022/06/10 11:07:46;;;;;;;2.50;1.30;;;25.50;99.90;;;;;;5044613;28;20429;-76
2022/06/10 11:10:34;;;;;;;5.50;1.60;;;25.60;99.90;;;;;;5046151;28;20440;-80
2022/06/10 11:13:07;;;;;;;4.63;1.50;;;25.80;99.90;;;;;;5028114;28;20495;-75
2022/06/10 11:15:34;;;;;;;3.13;1.47;;;25.90;99.90;;;;;;5027573;28;20435;-76
2022/06/10 11:18:01;;;;;;;5.23;1.80;;;25.90;99.90;;;;;;5038643;28;20581;-75
2022/06/10 11:20:33;;;;;;;4.30;1.70;;;26.10;99.90;;;;;;5040028;28;20487;-76
2022/06/10 11:23:11;;;;;;;4.20;1.30;;;26.10;99.90;;;;;;5040728;28;20495;-76
2022/06/10 11:25:37;;;;;;;4.97;1.73;;;25.90;99.90;;;;;;5044217;28;20437;-76
2022/06/10 11:28:16;;;;;;;2.73;1.53;;;25.70;99.90;;;;;;5052650;28;20435;-76
2022/06/10 11:30:44;;;;;;;2.10;1.30;;;25.50;99.90;;;;;;5032662;28;20439;-75
2022/06/10 11:33:21;;;;;;;2.70;1.40;;;25.30;99.90;;;;;;5038897;28;21024;-75
2022/06/10 11:36:21;;;;;;;3.43;1.50;;;25.30;99.90;;;;;;5041785;28;20468;-75
2022/06/10 11:39:04;;;;;;;2.50;1.60;;;25.50;99.90;;;;;;5001914;28;20452;-80
2022/06/10 11:41:32;;;;;;;4.10;1.60;;;25.50;99.90;;;;;;5004142;28;20427;-80
2022/06/10 11:44:20;;;;;;;3.50;1.57;;;25.70;99.90;;;;;;5011228;28;20433;-74
2022/06/10 11:47:03;;;;;;;2.37;1.40;;;25.90;99.90;;;;;;5010733;28;20504;-74
2022/06/10 11:49:54;;;;;;;4.13;1.40;;;26.20;99.90;;;;;;4996290;28;20432;-75
2022/06/10 11:52:34;;;;;;;3.27;1.30;;;26.40;99.90;;;;;;4990632;28;20442;-76
2022/06/10 11:55:22;;;;;;;3.33;1.50;;;26.80;99.90;;;;;;4990868;28;20437;-79
2022/06/10 12:00:52;;;;;;;4.10;1.37;;;26.80;99.90;;;;;;4991338;28;20478;-85
2022/06/10 12:03:27;;;;;;;4.10;1.77;;;27.00;99.90;;;;;;5007791;28;20437;-82
2022/06/10 12:06:23;;;;;;;3.87;1.70;;;27.00;99.90;;;;;;4993998;28;20460;-83
2022/06/10 12:08:57;;;;;;;3.17;1.30;;;27.10;99.90;;;;;;4994137;28;20497;-84
2022/06/10 12:11:43;;;;;;;2.97;1.40;;;27.30;99.90;;;;;;5002674;28;20485;-84
2022/06/10 12:14:41;;;;;;;1.67;1.30;;;27.40;99.90;;;;;;4984228;28;21015;-84
2022/06/10 12:17:25;;;;;;;3.87;1.40;;;27.50;99.90;;;;;;5026565;28;20795;-82
2022/06/10 12:20:13;;;;;;;3.47;1.50;;;27.50;99.90;;;;;;5038146;28;20427;-89
2022/06/10 12:22:39;;;;;;;6.60;2.30;;;27.40;99.90;;;;;;5048919;28;20586;-90
2022/06/10 12:25:40;;;;;;;4.87;1.37;;;27.40;99.90;;;;;;5033057;28;20431;-92
2022/06/10 12:28:19;;;;;;;1.90;1.30;;;27.40;99.90;;;;;;5023197;28;20639;-91
2022/06/10 12:30:48;;;;;;;5.83;1.80;;;27.20;99.90;;;;;;5027023;28;20521;-90
2022/06/10 12:33:23;;;;;;;3.47;1.30;;;27.40;99.90;;;;;;5028361;28;20470;-84
2022/06/10 12:35:50;;;;;;;3.03;1.47;;;27.20;99.90;;;;;;5013227;28;20492;-85
2022/06/10 12:38:22;;;;;;;2.47;1.47;;;27.50;99.90;;;;;;5019897;28;20421;-86
2022/06/10 12:40:58;;;;;;;3.47;1.50;;;27.40;99.90;;;;;;5009788;28;20530;-86
2022/06/10 12:43:31;;;;;;;2.63;1.40;;;27.80;99.90;;;;;;5031471;28;20467;-86
2022/06/10 12:46:04;;;;;;;2.00;1.13;;;27.80;99.90;;;;;;5022497;28;20421;-91
2022/06/10 12:48:56;;;;;;;2.10;1.13;;;27.90;99.90;;;;;;5018847;28;20425;-91
2022/06/10 12:51:44;;;;;;;2.53;1.33;;;27.90;99.90;;;;;;5043141;28;20467;-79
2022/06/10 12:54:46;;;;;;;15.00;1.60;;;28.00;99.90;;;;;;5053566;28;20472;-71
2022/06/10 12:57:27;;;;;;;1.93;1.47;;;28.00;99.90;;;;;;5048975;28;20414;-86
2022/06/10 13:00:22;;;;;;;1.53;1.33;;;28.20;99.90;;;;;;5072161;28;20459;-89
2022/06/10 13:02:59;;;;;;;4.20;1.33;;;28.40;99.90;;;;;;4994566;28;20441;-88
2022/06/10 13:08:50;;;;;;;2.43;1.47;;;28.70;99.90;;;;;;5018098;28;20405;-90
2022/06/10 13:11:40;;;;;;;9.10;1.50;;;28.90;99.90;;;;;;4991426;28;20524;-88
2022/06/10 13:14:29;;;;;;;3.07;1.43;;;28.80;99.90;;;;;;4980800;28;20457;-87
2022/06/10 13:16:58;;;;;;;6.40;1.47;;;28.60;99.90;;;;;;4984500;28;20428;-86
2022/06/10 13:19:55;;;;;;;2.53;1.43;;;28.50;99.90;;;;;;5001173;28;20435;-87
2022/06/10 13:22:20;;;;;;;3.67;2.00;;;28.30;99.90;;;;;;4907869;29;20431;-86
2022/06/10 13:24:52;;;;;;;2.10;1.60;;;28.20;99.90;;;;;;4900629;29;20498;-87
2022/06/10 13:27:30;;;;;;;4.13;1.50;;;28.50;99.90;;;;;;4900533;29;20235;-91
2022/06/10 13:30:11;;;;;;;3.40;1.53;;;28.00;99.90;;;;;;4906139;29;20939;-91
2022/06/10 13:32:47;;;;;;;2.40;1.40;;;27.60;99.90;;;;;;4884761;29;21124;-93
2022/06/10 13:35:22;;;;;;;5.23;1.73;;;27.40;99.90;;;;;;4915050;29;20436;-93
2022/06/10 13:37:51;;;;;;;4.97;1.50;;;27.30;99.90;;;;;;4907134;29;20433;-86
2022/06/10 13:40:24;;;;;;;1.60;1.20;;;27.20;99.90;;;;;;4909129;29;20539;-86
2022/06/10 13:43:00;;;;;;;2.83;1.50;;;27.20;99.90;;;;;;4925346;29;20872;-85
2022/06/10 13:45:37;;;;;;;2.20;1.27;;;27.10;99.90;;;;;;4919824;29;20484;-84
2022/06/10 13:48:24;;;;;;;7.73;1.70;;;27.20;99.90;;;;;;4931729;29;20444;-86
2022/06/10 13:51:39;;;;;;;10.33;1.67;;;27.40;99.90;;;;;;4941246;29;20486;-90
2022/06/10 13:54:10;;;;;;;1.50;1.40;;;27.70;99.90;;;;;;4914139;29;20976;-90
2022/06/10 13:56:43;;;;;;;1.93;1.40;;;27.90;99.90;;;;;;4917255;29;20861;-87
2022/06/10 13:59:22;;;;;;;5.87;1.50;;;28.10;99.90;;;;;;4966846;28;20463;-88
2022/06/10 14:01:50;;;;;;;2.37;1.40;;;28.10;99.90;;;;;;5028955;28;20432;-87
2022/06/10 14:04:19;;;;;;;4.10;1.57;;;27.90;99.90;;;;;;5046093;28;20828;-87
2022/06/10 14:06:48;;;;;;;15.93;1.63;;;27.60;99.90;;;;;;5054179;28;20824;-85
2022/06/10 14:09:27;;;;;;;2.37;1.33;;;27.50;99.90;;;;;;5039010;28;20438;-91
2022/06/10 14:12:25;;;;;;;1.73;1.10;;;27.40;99.90;;;;;;5025461;28;20445;-93
2022/06/10 14:15:03;;;;;;;9.13;2.30;;;27.40;99.90;;;;;;5017455;28;20444;-93
2022/06/10 14:17:28;;;;;;;2.53;1.13;;;27.40;99.90;;;;;;5022340;28;20446;-94
2022/06/10 14:19:58;;;;;;;2.90;1.23;;;27.50;99.90;;;;;;5023842;28;20498;-93
2022/06/10 14:22:26;;;;;;;18.97;1.57;;;27.80;99.90;;;;;;5051375;28;20173;-92
2022/06/10 14:25:14;;;;;;;10.27;2.30;;;27.70;99.90;;;;;;5062954;28;20437;-91
2022/06/10 14:28:13;;;;;;;3.50;1.70;;;28.10;99.90;;;;;;5050857;28;20447;-92
2022/06/10 14:30:52;;;;;;;4.13;1.23;;;28.70;99.90;;;;;;4974671;28;20425;-84
2022/06/10 14:33:23;;;;;;;2.70;1.27;;;28.90;99.90;;;;;;4981980;28;20514;-85
2022/06/10 14:35:52;;;;;;;8.03;1.47;;;28.60;99.90;;;;;;4979109;28;20769;-87
2022/06/10 14:38:24;;;;;;;3.97;1.80;;;28.60;99.90;;;;;;4981768;28;20505;-84
2022/06/10 14:41:03;;;;;;;3.00;1.40;;;28.40;99.90;;;;;;4998000;28;20435;-84
2022/06/10 14:43:38;;;;;;;4.03;1.33;;;28.20;99.90;;;;;;4992845;28;20426;-83
2022/06/10 14:46:19;;;;;;;3.23;1.53;;;28.20;99.90;;;;;;5002782;28;20423;-83
2022/06/10 14:48:46;;;;;;;2.93;1.50;;;28.10;99.90;;;;;;4987380;28;20435;-88
2022/06/10 14:51:20;;;;;;;2.13;1.20;;;28.10;99.90;;;;;;4991568;28;20447;-87
2022/06/10 14:54:07;;;;;;;1.63;1.40;;;28.10;99.90;;;;;;5012362;28;20564;-88
2022/06/10 14:56:41;;;;;;;6.37;1.40;;;28.20;99.90;;;;;;4993517;28;20423;-89
2022/06/10 14:59:24;;;;;;;2.53;1.43;;;28.10;99.90;;;;;;4995905;28;20628;-87
2022/06/10 15:01:52;;;;;;;4.87;1.23;;;27.90;99.90;;;;;;4982458;28;20428;-87
2022/06/10 15:04:18;;;;;;;7.87;1.60;;;27.90;99.90;;;;;;4992352;28;20521;-86
2022/06/10 15:06:57;;;;;;;1.53;1.43;;;28.00;99.90;;;;;;5021787;28;20908;-86
2022/06/10 15:09:34;;;;;;;4.30;1.53;;;28.10;99.90;;;;;;5014843;28;20437;-88
2022/06/10 15:12:27;;;;;;;5.53;1.70;;;28.80;99.90;;;;;;5053899;28;20440;-86
2022/06/10 15:14:54;;;;;;;3.87;1.27;;;30.80;99.90;;;;;;5031206;28;20434;-85
2022/06/10 15:17:23;;;;;;;4.33;1.60;;;32.10;99.90;;;;;;5050403;28;20426;-85
2022/06/10 15:19:50;;;;;;;18.33;1.70;;;32.10;99.90;;;;;;5043317;28;20848;-84
2022/06/10 15:22:36;;;;;;;10.17;1.63;;;31.40;99.90;;;;;;5032948;28;20426;-85
2022/06/10 15:25:03;;;;;;;3.97;1.40;;;31.30;99.90;;;;;;5041396;28;20421;-85
2022/06/10 15:27:29;;;;;;;5.53;1.50;;;31.00;99.90;;;;;;5047842;28;20516;-88
2022/06/10 15:29:57;;;;;;;1.67;1.30;;;30.60;99.90;;;;;;5049793;28;20470;-88
2022/06/10 15:32:23;;;;;;;8.87;1.57;;;30.30;99.90;;;;;;5049904;28;20176;-89
2022/06/10 15:43:06;;;;;;;3.30;1.40;;;29.10;99.90;;;;;;5053081;28;20447;-79
2022/06/10 15:45:32;;;;;;;4.03;1.40;;;28.90;99.90;;;;;;5043079;28;20508;-79
2022/06/10 15:47:58;;;;;;;5.53;1.67;;;28.90;99.90;;;;;;5052432;28;20449;-79
2022/06/10 15:50:25;;;;;;;11.20;1.43;;;28.90;99.90;;;;;;5042078;28;20463;-79
2022/06/10 15:52:51;;;;;;;8.10;1.70;;;28.90;99.90;;;;;;5039150;28;20206;-80
2022/06/10 15:58:26;;;;;;;2.70;1.30;;;28.90;99.90;;;;;;5047651;28;20423;-80
2022/06/10 16:00:52;;;;;;;4.30;1.40;;;29.30;99.90;;;;;;5048042;28;20422;-88
2022/06/10 16:03:19;;;;;;;1.77;1.17;;;30.30;99.90;;;;;;5026877;28;20852;-87
2022/06/10 16:05:47;;;;;;;5.40;1.40;;;32.10;99.90;;;;;;5016412;28;20219;-82
2022/06/10 16:08:13;;;;;;;3.67;1.57;;;33.00;99.90;;;;;;5040276;28;20494;-81
2022/06/10 16:10:42;;;;;;;4.67;1.80;;;33.10;99.90;;;;;;5020464;28;20505;-88
2022/06/10 16:13:14;;;;;;;3.63;1.37;;;32.90;99.90;;;;;;5028677;28;20199;-82
2022/06/10 16:15:51;;;;;;;3.50;1.50;;;32.70;99.90;;;;;;5032911;28;20448;-82
2022/06/10 16:18:26;;;;;;;3.73;1.37;;;32.20;99.90;;;;;;5052274;28;20509;-82
2022/06/10 16:20:54;;;;;;;3.37;1.80;;;32.00;99.90;;;;;;5034288;28;20429;-83
2022/06/10 16:23:23;;;;;;;6.73;2.00;;;31.90;99.90;;;;;;5034310;28;20762;-83
2022/06/10 16:25:53;;;;;;;4.93;1.40;;;31.80;99.90;;;;;;5056148;28;20428;-83
2022/06/10 16:28:29;;;;;;;494.00;397.70;;;31.40;99.90;;;;;;5048428;28;20417;-83
2022/06/10 16:30:57;;;;;;;21.30;11.00;;;30.90;99.90;;;;;;5056397;28;20844;-83
2022/06/10 16:33:26;;;;;;;6.40;4.13;;;30.70;99.90;;;;;;5018307;28;20458;-83
2022/06/10 16:35:52;;;;;;;7.70;6.60;;;30.60;99.90;;;;;;5065411;28;20453;-82
2022/06/10 16:38:20;;;;;;;3.60;2.00;;;30.40;99.90;;;;;;5056240;28;20921;-83
2022/06/10 16:40:47;;;;;;;6.60;3.57;;;30.10;99.90;;;;;;5056498;28;20504;-86
2022/06/10 16:43:19;;;;;;;8.23;1.83;;;29.90;99.90;;;;;;5039360;28;20479;-91
2022/06/10 16:45:46;;;;;;;3.73;1.30;;;29.60;99.90;;;;;;5056925;28;20426;-91
2022/06/10 16:48:19;;;;;;;4.23;1.70;;;29.60;99.90;;;;;;5031551;28;20790;-91
2022/06/10 16:50:50;;;;;;;6.43;1.50;;;30.00;99.90;;;;;;5050615;28;20429;-91
2022/06/10 16:53:17;;;;;;;7.10;1.40;;;31.80;99.90;;;;;;5019657;28;20812;-92
2022/06/10 16:55:44;;;;;;;3.10;1.20;;;34.40;99.90;;;;;;5069211;28;20422;-91
2022/06/10 16:58:33;;;;;;;8.97;1.70;;;36.40;99.90;;;;;;5029678;28;20414;-87
2022/06/10 17:00:59;;;;;;;6.37;1.60;;;38.90;99.90;;;;;;5019372;28;20933;-85
2022/06/10 17:03:26;;;;;;;3.90;1.40;;;40.50;99.90;;;;;;5018435;28;20427;-79
2022/06/10 17:05:52;;;;;;;7.80;1.10;;;41.30;99.90;;;;;;5032129;28;20633;-78
2022/06/10 17:08:20;;;;;;;4.83;1.47;;;41.50;99.90;;;;;;5036386;28;20510;-79
2022/06/10 17:10:55;;;;;;;7.73;1.30;;;41.80;99.90;;;;;;5046739;28;20659;-78
2022/06/10 17:13:35;;;;;;;6.93;1.37;;;40.40;99.90;;;;;;5045398;28;20530;-78
2022/06/10 17:16:02;;;;;;;11.10;1.40;;;38.50;99.90;;;;;;5034194;28;20546;-78
2022/06/10 17:18:29;;;;;;;2.83;1.33;;;36.40;99.90;;;;;;5038415;28;20438;-78
2022/06/10 17:20:57;;;;;;;6.20;1.37;;;35.00;99.90;;;;;;5040686;28;20430;-78
2022/06/10 17:23:27;;;;;;;8.77;1.77;;;34.00;99.90;;;;;;5036909;28;20433;-78
2022/06/10 17:26:14;;;;;;;4.27;1.60;;;33.10;99.90;;;;;;5047268;28;20427;-78
2022/06/10 17:28:51;;;;;;;4.53;1.40;;;32.80;99.90;;;;;;5053425;28;20418;-86
2022/06/10 17:31:22;;;;;;;7.13;1.80;;;33.40;99.90;;;;;;5042980;28;20812;-88
2022/06/10 17:33:49;;;;;;;12.53;1.60;;;34.50;99.90;;;;;;5037363;28;20850;-87
2022/06/10 17:36:20;;;;;;;7.17;1.57;;;34.90;99.90;;;;;;5054858;28;20423;-87
2022/06/10 17:38:50;;;;;;;4.50;1.70;;;35.20;99.90;;;;;;5049590;28;20415;-86
2022/06/10 17:41:28;;;;;;;5.27;1.40;;;35.30;99.90;;;;;;5055322;28;20461;-85
2022/06/10 17:43:58;;;;;;;3.53;1.37;;;35.30;99.90;;;;;;5055440;28;20422;-79
2022/06/10 17:46:33;;;;;;;6.33;1.50;;;34.90;99.90;;;;;;5036664;28;20764;-79
2022/06/10 17:48:59;;;;;;;5.20;1.40;;;34.20;99.90;;;;;;5017219;28;20483;-79
2022/06/10 17:51:24;;;;;;;7.20;1.60;;;33.50;99.90;;;;;;5039438;28;20437;-78
2022/06/10 17:53:50;;;;;;;9.33;1.43;;;32.70;99.90;;;;;;5040357;28;20226;-79
2022/06/10 17:56:16;;;;;;;6.83;1.73;;;32.00;99.90;;;;;;5047887;28;20179;-77
2022/06/10 17:58:42;;;;;;;4.13;1.40;;;31.20;99.90;;;;;;5035280;28;20628;-82
2022/06/10 18:01:15;;;;;;;9.53;1.87;;;30.60;99.90;;;;;;5048373;28;20181;-82
2022/06/10 18:03:41;;;;;;;3.00;1.50;;;30.10;99.90;;;;;;5046298;28;20176;-83
2022/06/10 18:06:15;;;;;;;3.67;1.77;;;29.60;99.90;;;;;;5044045;28;20953;-82
2022/06/10 18:08:40;;;;;;;3.33;1.70;;;29.00;99.90;;;;;;5039242;28;20759;-83
2022/06/10 18:11:13;;;;;;;7.50;1.67;;;28.60;99.90;;;;;;5053633;28;21021;-83
2022/06/10 18:16:39;;;;;;;4.67;1.50;;;27.60;99.90;;;;;;5054474;28;20782;-78
2022/06/10 18:19:08;;;;;;;3.37;1.67;;;27.10;99.90;;;;;;5040606;28;20993;-79
2022/06/10 18:21:34;;;;;;;4.70;1.53;;;26.60;99.90;;;;;;5054223;28;20426;-78
2022/06/10 18:24:00;;;;;;;6.43;2.10;;;26.20;99.90;;;;;;5054224;28;20423;-79
2022/06/10 18:26:38;;;;;;;4.20;1.80;;;25.80;99.90;;;;;;5054003;28;20186;-79
2022/06/10 18:29:16;;;;;;;10.30;2.47;;;25.40;99.90;;;;;;5054450;28;20181;-80
2022/06/10 18:31:42;;;;;;;4.90;2.00;;;25.00;99.90;;;;;;5036250;28;20777;-79
2022/06/10 18:34:11;;;;;;;6.67;2.10;;;24.60;99.90;;;;;;5053264;28;20461;-79
2022/06/10 18:36:37;;;;;;;5.70;2.37;;;24.40;99.90;;;;;;5054013;28;20179;-76
2022/06/10 18:39:15;;;;;;;5.73;2.07;;;24.10;99.90;;;;;;5039331;28;20441;-78
2022/06/10 18:41:41;;;;;;;6.20;2.17;;;23.80;99.90;;;;;;5050955;28;20568;-77
2022/06/10 18:44:07;;;;;;;11.00;2.10;;;23.60;99.90;;;;;;5049184;28;20434;-82
2022/06/10 18:46:33;;;;;;;18.73;2.77;;;23.30;99.90;;;;;;5051011;28;20904;-88
2022/06/10 18:49:01;;;;;;;5.60;2.07;;;23.10;99.90;;;;;;5043496;28;20180;-89
2022/06/10 18:51:33;;;;;;;5.03;2.40;;;22.90;99.90;;;;;;5036794;28;20192;-88
2022/06/10 18:54:01;;;;;;;3.23;2.40;;;22.60;99.90;;;;;;5051780;28;20472;-88